sensor_id;sensor_type;location;lat;lon;timestamp;temperature;humidity
43627;DHT22;29217;52.586;13.442;2023-08-06T00:01:14;16.80;99.90
43627;DHT22;29217;52.586;13.442;2023-08-06T00:03:40;16.80;99.90
43627;DHT22;29217;52.586;13.442;2023-08-06T00:06:05;16.80;99.90
43627;DHT22;29217;52.586;13.442;2023-08-06T00:08:31;16.80;99.90
43627;DHT22;29217;52.586;13.442;2023-08-06T00:10:57;16.90;99.90
43627;DHT22;29217;52.586;13.442;2023-08-06T00:13:22;16.90;99.90
43627;DHT22;29217;52.586;13.442;2023-08-06T00:15:48;16.90;99.90
43627;DHT22;29217;52.586;13.442;2023-08-06T00:18:13;16.90;99.90
43627;DHT22;29217;52.586;13.442;2023-08-06T00:20:40;16.90;99.90
43627;DHT22;29217;52.586;13.442;2023-08-06T00:23:07;16.80;99.90
43627;DHT22;29217;52.586;13.442;2023-08-06T00:25:33;16.80;99.90
43627;DHT22;29217;52.586;13.442;2023-08-06T00:27:59;16.80;99.90
43627;DHT22;29217;52.586;13.442;2023-08-06T00:30:24;16.80;99.90
43627;DHT22;29217;52.586;13.442;2023-08-06T00:32:50;16.80;99.90
43627;DHT22;29217;52.586;13.442;2023-08-06T00:35:15;16.70;99.90
43627;DHT22;29217;52.586;13.442;2023-08-06T00:37:41;16.80;99.90
43627;DHT22;29217;52.586;13.442;2023-08-06T00:40:07;16.70;99.90
43627;DHT22;29217;52.586;13.442;2023-08-06T00:42:34;16.80;99.90
43627;DHT22;29217;52.586;13.442;2023-08-06T00:45:00;16.70;99.90
43627;DHT22;29217;52.586;13.442;2023-08-06T00:47:26;16.70;99.90
43627;DHT22;29217;52.586;13.442;2023-08-06T00:49:52;16.70;99.90
43627;DHT22;29217;52.586;13.442;2023-08-06T00:52:17;16.80;99.90
43627;DHT22;29217;52.586;13.442;2023-08-06T00:54:43;16.80;99.90
43627;DHT22;29217;52.586;13.442;2023-08-06T00:57:09;16.80;99.90
43627;DHT22;29217;52.586;13.442;2023-08-06T00:59:35;16.80;99.90
43627;DHT22;29217;52.586;13.442;2023-08-06T01:02:01;16.80;99.90
43627;DHT22;29217;52.586;13.442;2023-08-06T01:04:26;16.80;99.90
43627;DHT22;29217;52.586;13.442;2023-08-06T01:07:03;16.80;99.90
43627;DHT22;29217;52.586;13.442;2023-08-06T01:12:30;16.70;99.90
43627;DHT22;29217;52.586;13.442;2023-08-06T01:15:11;16.80;99.90
43627;DHT22;29217;52.586;13.442;2023-08-06T01:17:39;16.80;99.90
43627;DHT22;29217;52.586;13.442;2023-08-06T01:20:05;16.70;99.90
43627;DHT22;29217;52.586;13.442;2023-08-06T01:22:31;16.80;99.90
43627;DHT22;29217;52.586;13.442;2023-08-06T01:24:57;16.70;99.90
43627;DHT22;29217;52.586;13.442;2023-08-06T01:27:38;16.70;99.90
43627;DHT22;29217;52.586;13.442;2023-08-06T01:30:29;16.70;99.90
43627;DHT22;29217;52.586;13.442;2023-08-06T01:32:59;16.70;99.90
43627;DHT22;29217;52.586;13.442;2023-08-06T01:35:27;16.60;99.90
43627;DHT22;29217;52.586;13.442;2023-08-06T01:37:53;16.60;99.90
43627;DHT22;29217;52.586;13.442;2023-08-06T01:40:19;16.60;99.90
43627;DHT22;29217;52.586;13.442;2023-08-06T01:42:45;16.60;99.90
43627;DHT22;29217;52.586;13.442;2023-08-06T01:45:11;16.60;99.90
43627;DHT22;29217;52.586;13.442;2023-08-06T01:47:36;16.60;99.90
43627;DHT22;29217;52.586;13.442;2023-08-06T01:50:02;16.70;99.90
43627;DHT22;29217;52.586;13.442;2023-08-06T01:52:28;16.70;99.90
43627;DHT22;29217;52.586;13.442;2023-08-06T01:54:54;16.70;99.90
43627;DHT22;29217;52.586;13.442;2023-08-06T01:57:20;16.70;99.90
43627;DHT22;29217;52.586;13.442;2023-08-06T01:59:45;16.60;99.90
43627;DHT22;29217;52.586;13.442;2023-08-06T02:02:11;16.60;99.90
43627;DHT22;29217;52.586;13.442;2023-08-06T02:04:37;16.70;99.90
43627;DHT22;29217;52.586;13.442;2023-08-06T02:07:03;16.70;99.90
43627;DHT22;29217;52.586;13.442;2023-08-06T02:09:28;16.60;99.90
43627;DHT22;29217;52.586;13.442;2023-08-06T02:11:54;16.60;99.90
43627;DHT22;29217;52.586;13.442;2023-08-06T02:14:19;16.60;99.90
43627;DHT22;29217;52.586;13.442;2023-08-06T02:16:45;16.60;99.90
43627;DHT22;29217;52.586;13.442;2023-08-06T02:19:10;16.60;99.90
43627;DHT22;29217;52.586;13.442;2023-08-06T02:21:36;16.60;99.90
43627;DHT22;29217;52.586;13.442;2023-08-06T02:24:02;16.60;99.90
43627;DHT22;29217;52.586;13.442;2023-08-06T02:26:27;16.60;99.90
43627;DHT22;29217;52.586;13.442;2023-08-06T02:28:53;16.60;99.90
43627;DHT22;29217;52.586;13.442;2023-08-06T02:31:19;16.60;99.90
43627;DHT22;29217;52.586;13.442;2023-08-06T02:33:44;16.60;99.90
43627;DHT22;29217;52.586;13.442;2023-08-06T02:36:10;16.60;99.90
43627;DHT22;29217;52.586;13.442;2023-08-06T02:38:35;16.60;99.90
43627;DHT22;29217;52.586;13.442;2023-08-06T02:41:04;16.50;99.90
43627;DHT22;29217;52.586;13.442;2023-08-06T02:43:29;16.50;99.90
43627;DHT22;29217;52.586;13.442;2023-08-06T02:45:59;16.50;99.90
43627;DHT22;29217;52.586;13.442;2023-08-06T02:48:25;16.60;99.90
43627;DHT22;29217;52.586;13.442;2023-08-06T02:50:51;16.50;99.90
43627;DHT22;29217;52.586;13.442;2023-08-06T02:53:16;16.50;99.90
43627;DHT22;29217;52.586;13.442;2023-08-06T02:55:48;16.50;99.90
43627;DHT22;29217;52.586;13.442;2023-08-06T02:58:14;16.50;99.90
43627;DHT22;29217;52.586;13.442;2023-08-06T03:00:40;16.50;99.90
43627;DHT22;29217;52.586;13.442;2023-08-06T03:03:06;16.50;99.90
43627;DHT22;29217;52.586;13.442;2023-08-06T03:05:32;16.50;99.90
43627;DHT22;29217;52.586;13.442;2023-08-06T03:07:57;16.50;99.90
43627;DHT22;29217;52.586;13.442;2023-08-06T03:10:23;16.50;99.90
43627;DHT22;29217;52.586;13.442;2023-08-06T03:12:48;16.50;99.90
43627;DHT22;29217;52.586;13.442;2023-08-06T03:15:14;16.50;99.90
43627;DHT22;29217;52.586;13.442;2023-08-06T03:17:39;16.50;99.90
43627;DHT22;29217;52.586;13.442;2023-08-06T03:20:06;16.50;99.90
43627;DHT22;29217;52.586;13.442;2023-08-06T03:22:31;16.50;99.90
43627;DHT22;29217;52.586;13.442;2023-08-06T03:24:57;16.50;99.90
43627;DHT22;29217;52.586;13.442;2023-08-06T03:27:23;16.50;99.90
43627;DHT22;29217;52.586;13.442;2023-08-06T03:29:49;16.50;99.90
43627;DHT22;29217;52.586;13.442;2023-08-06T03:32:15;16.50;99.90
43627;DHT22;29217;52.586;13.442;2023-08-06T03:34:41;16.50;99.90
43627;DHT22;29217;52.586;13.442;2023-08-06T03:37:06;16.50;99.90
43627;DHT22;29217;52.586;13.442;2023-08-06T03:39:32;16.50;99.90
43627;DHT22;29217;52.586;13.442;2023-08-06T03:41:58;16.50;99.90
43627;DHT22;29217;52.586;13.442;2023-08-06T03:44:23;16.50;99.90
43627;DHT22;29217;52.586;13.442;2023-08-06T03:46:49;16.40;99.90
43627;DHT22;29217;52.586;13.442;2023-08-06T03:49:14;16.40;99.90
43627;DHT22;29217;52.586;13.442;2023-08-06T03:51:40;16.40;99.90
43627;DHT22;29217;52.586;13.442;2023-08-06T03:54:05;16.40;99.90
43627;DHT22;29217;52.586;13.442;2023-08-06T03:56:31;16.40;99.90
43627;DHT22;29217;52.586;13.442;2023-08-06T03:58:57;16.40;99.90
43627;DHT22;29217;52.586;13.442;2023-08-06T04:01:22;16.40;99.90
43627;DHT22;29217;52.586;13.442;2023-08-06T04:03:48;16.40;99.90
43627;DHT22;29217;52.586;13.442;2023-08-06T04:06:13;16.40;99.90
43627;DHT22;29217;52.586;13.442;2023-08-06T04:08:39;16.40;99.90
43627;DHT22;29217;52.586;13.442;2023-08-06T04:11:05;16.40;99.90
43627;DHT22;29217;52.586;13.442;2023-08-06T04:13:30;16.40;99.90
43627;DHT22;29217;52.586;13.442;2023-08-06T04:16:01;16.40;99.90
43627;DHT22;29217;52.586;13.442;2023-08-06T04:18:26;16.40;99.90
43627;DHT22;29217;52.586;13.442;2023-08-06T04:20:52;16.40;99.90
43627;DHT22;29217;52.586;13.442;2023-08-06T04:23:20;16.40;99.90
43627;DHT22;29217;52.586;13.442;2023-08-06T04:25:46;16.40;99.90
43627;DHT22;29217;52.586;13.442;2023-08-06T04:28:11;16.40;99.90
43627;DHT22;29217;52.586;13.442;2023-08-06T04:30:37;16.40;99.90
43627;DHT22;29217;52.586;13.442;2023-08-06T04:33:03;16.40;99.90
43627;DHT22;29217;52.586;13.442;2023-08-06T04:35:29;16.40;99.90
43627;DHT22;29217;52.586;13.442;2023-08-06T04:37:55;16.40;99.90
43627;DHT22;29217;52.586;13.442;2023-08-06T04:40:20;16.50;99.90
43627;DHT22;29217;52.586;13.442;2023-08-06T04:42:46;16.50;99.90
43627;DHT22;29217;52.586;13.442;2023-08-06T04:45:11;16.40;99.90
43627;DHT22;29217;52.586;13.442;2023-08-06T04:47:37;16.50;99.90
43627;DHT22;29217;52.586;13.442;2023-08-06T04:50:03;16.50;99.90
43627;DHT22;29217;52.586;13.442;2023-08-06T04:52:28;16.50;99.90
43627;DHT22;29217;52.586;13.442;2023-08-06T04:54:54;16.50;99.90
43627;DHT22;29217;52.586;13.442;2023-08-06T04:57:20;16.50;99.90
43627;DHT22;29217;52.586;13.442;2023-08-06T04:59:46;16.60;99.90
43627;DHT22;29217;52.586;13.442;2023-08-06T05:02:12;16.60;99.90
43627;DHT22;29217;52.586;13.442;2023-08-06T05:04:37;16.60;99.90
43627;DHT22;29217;52.586;13.442;2023-08-06T05:07:04;16.60;99.90
43627;DHT22;29217;52.586;13.442;2023-08-06T05:09:30;16.60;99.90
43627;DHT22;29217;52.586;13.442;2023-08-06T05:11:56;16.50;99.90
43627;DHT22;29217;52.586;13.442;2023-08-06T05:14:21;16.50;99.90
43627;DHT22;29217;52.586;13.442;2023-08-06T05:16:47;16.50;99.90
43627;DHT22;29217;52.586;13.442;2023-08-06T05:19:13;16.60;99.90
43627;DHT22;29217;52.586;13.442;2023-08-06T05:21:38;16.60;99.90
43627;DHT22;29217;52.586;13.442;2023-08-06T05:24:04;16.60;99.90
43627;DHT22;29217;52.586;13.442;2023-08-06T05:26:29;16.60;99.90
43627;DHT22;29217;52.586;13.442;2023-08-06T05:28:55;16.60;99.90
43627;DHT22;29217;52.586;13.442;2023-08-06T05:31:20;16.60;99.90
43627;DHT22;29217;52.586;13.442;2023-08-06T05:33:46;16.60;99.90
43627;DHT22;29217;52.586;13.442;2023-08-06T05:36:11;16.60;99.90
43627;DHT22;29217;52.586;13.442;2023-08-06T05:38:37;16.60;99.90
43627;DHT22;29217;52.586;13.442;2023-08-06T05:41:03;16.70;99.90
43627;DHT22;29217;52.586;13.442;2023-08-06T05:43:29;16.70;99.90
43627;DHT22;29217;52.586;13.442;2023-08-06T05:45:56;16.70;99.90
43627;DHT22;29217;52.586;13.442;2023-08-06T05:48:21;16.80;99.90
43627;DHT22;29217;52.586;13.442;2023-08-06T05:50:50;16.80;99.90
43627;DHT22;29217;52.586;13.442;2023-08-06T05:53:16;16.80;99.90
43627;DHT22;29217;52.586;13.442;2023-08-06T05:55:41;16.80;99.90
43627;DHT22;29217;52.586;13.442;2023-08-06T05:58:07;16.80;99.90
43627;DHT22;29217;52.586;13.442;2023-08-06T06:00:32;16.90;99.90
43627;DHT22;29217;52.586;13.442;2023-08-06T06:02:58;16.80;99.90
43627;DHT22;29217;52.586;13.442;2023-08-06T06:05:24;16.90;99.90
43627;DHT22;29217;52.586;13.442;2023-08-06T06:07:49;16.80;99.90
43627;DHT22;29217;52.586;13.442;2023-08-06T06:10:15;16.80;99.90
43627;DHT22;29217;52.586;13.442;2023-08-06T06:12:40;16.80;99.90
43627;DHT22;29217;52.586;13.442;2023-08-06T06:15:06;16.80;99.90
43627;DHT22;29217;52.586;13.442;2023-08-06T06:17:32;16.80;99.90
43627;DHT22;29217;52.586;13.442;2023-08-06T06:19:58;16.80;99.90
43627;DHT22;29217;52.586;13.442;2023-08-06T06:22:23;16.90;99.90
43627;DHT22;29217;52.586;13.442;2023-08-06T06:24:49;16.90;99.90
43627;DHT22;29217;52.586;13.442;2023-08-06T06:27:14;16.90;99.90
43627;DHT22;29217;52.586;13.442;2023-08-06T06:29:40;17.00;99.90
43627;DHT22;29217;52.586;13.442;2023-08-06T06:32:06;17.00;99.90
43627;DHT22;29217;52.586;13.442;2023-08-06T06:34:31;17.00;99.90
43627;DHT22;29217;52.586;13.442;2023-08-06T06:36:57;17.10;99.90
43627;DHT22;29217;52.586;13.442;2023-08-06T06:39:23;17.10;99.90
43627;DHT22;29217;52.586;13.442;2023-08-06T06:41:48;17.10;99.90
43627;DHT22;29217;52.586;13.442;2023-08-06T06:44:14;17.20;99.90
43627;DHT22;29217;52.586;13.442;2023-08-06T06:46:40;17.20;99.90
43627;DHT22;29217;52.586;13.442;2023-08-06T06:49:06;17.20;99.90
43627;DHT22;29217;52.586;13.442;2023-08-06T06:51:31;17.20;99.90
43627;DHT22;29217;52.586;13.442;2023-08-06T06:53:57;17.20;99.90
43627;DHT22;29217;52.586;13.442;2023-08-06T06:56:23;17.20;99.90
43627;DHT22;29217;52.586;13.442;2023-08-06T06:58:48;17.20;99.90
43627;DHT22;29217;52.586;13.442;2023-08-06T07:01:14;17.20;99.90
43627;DHT22;29217;52.586;13.442;2023-08-06T07:03:40;17.20;99.90
43627;DHT22;29217;52.586;13.442;2023-08-06T07:06:06;17.20;99.90
43627;DHT22;29217;52.586;13.442;2023-08-06T07:08:32;17.30;99.90
43627;DHT22;29217;52.586;13.442;2023-08-06T07:11:05;17.30;99.90
43627;DHT22;29217;52.586;13.442;2023-08-06T07:13:32;17.30;99.90
43627;DHT22;29217;52.586;13.442;2023-08-06T07:15:58;17.30;99.90
43627;DHT22;29217;52.586;13.442;2023-08-06T07:18:24;17.30;99.90
43627;DHT22;29217;52.586;13.442;2023-08-06T07:20:53;17.40;99.90
43627;DHT22;29217;52.586;13.442;2023-08-06T07:23:20;17.40;99.90
43627;DHT22;29217;52.586;13.442;2023-08-06T07:25:46;17.40;99.90
43627;DHT22;29217;52.586;13.442;2023-08-06T07:28:13;17.40;99.90
43627;DHT22;29217;52.586;13.442;2023-08-06T07:30:39;17.40;99.90
43627;DHT22;29217;52.586;13.442;2023-08-06T07:33:05;17.40;99.90
43627;DHT22;29217;52.586;13.442;2023-08-06T07:35:31;17.50;99.90
43627;DHT22;29217;52.586;13.442;2023-08-06T07:37:57;17.50;99.90
43627;DHT22;29217;52.586;13.442;2023-08-06T07:40:22;17.50;99.90
43627;DHT22;29217;52.586;13.442;2023-08-06T07:42:48;17.50;99.90
43627;DHT22;29217;52.586;13.442;2023-08-06T07:45:14;17.50;99.90
43627;DHT22;29217;52.586;13.442;2023-08-06T07:47:39;17.60;99.90
43627;DHT22;29217;52.586;13.442;2023-08-06T07:50:05;17.60;99.90
43627;DHT22;29217;52.586;13.442;2023-08-06T07:52:31;17.60;99.90
43627;DHT22;29217;52.586;13.442;2023-08-06T07:54:57;17.60;99.90
43627;DHT22;29217;52.586;13.442;2023-08-06T07:57:22;17.60;99.90
43627;DHT22;29217;52.586;13.442;2023-08-06T07:59:48;17.60;99.90
43627;DHT22;29217;52.586;13.442;2023-08-06T08:02:13;17.70;99.90
43627;DHT22;29217;52.586;13.442;2023-08-06T08:04:39;17.70;99.90
43627;DHT22;29217;52.586;13.442;2023-08-06T08:07:05;17.70;99.90
43627;DHT22;29217;52.586;13.442;2023-08-06T08:09:30;17.70;99.90
43627;DHT22;29217;52.586;13.442;2023-08-06T08:11:56;17.70;99.90
43627;DHT22;29217;52.586;13.442;2023-08-06T08:14:22;17.70;99.90
43627;DHT22;29217;52.586;13.442;2023-08-06T08:16:48;17.70;99.90
43627;DHT22;29217;52.586;13.442;2023-08-06T08:19:14;17.80;99.90
43627;DHT22;29217;52.586;13.442;2023-08-06T08:21:39;17.80;99.90
43627;DHT22;29217;52.586;13.442;2023-08-06T08:24:05;17.80;99.90
43627;DHT22;29217;52.586;13.442;2023-08-06T08:26:31;17.80;99.90
43627;DHT22;29217;52.586;13.442;2023-08-06T08:28:56;17.90;99.90
43627;DHT22;29217;52.586;13.442;2023-08-06T08:31:22;17.80;99.90
43627;DHT22;29217;52.586;13.442;2023-08-06T08:33:48;17.90;99.90
43627;DHT22;29217;52.586;13.442;2023-08-06T08:36:13;17.80;99.90
43627;DHT22;29217;52.586;13.442;2023-08-06T08:38:39;17.90;99.90
43627;DHT22;29217;52.586;13.442;2023-08-06T08:41:05;17.90;99.90
43627;DHT22;29217;52.586;13.442;2023-08-06T08:43:31;18.00;99.90
43627;DHT22;29217;52.586;13.442;2023-08-06T08:45:57;18.00;99.90
43627;DHT22;29217;52.586;13.442;2023-08-06T08:48:24;18.00;99.90
43627;DHT22;29217;52.586;13.442;2023-08-06T08:50:51;17.90;99.90
43627;DHT22;29217;52.586;13.442;2023-08-06T08:53:17;18.00;99.90
43627;DHT22;29217;52.586;13.442;2023-08-06T08:55:46;18.10;99.90
43627;DHT22;29217;52.586;13.442;2023-08-06T08:58:12;18.10;99.90
43627;DHT22;29217;52.586;13.442;2023-08-06T09:00:37;18.10;99.90
43627;DHT22;29217;52.586;13.442;2023-08-06T09:03:06;18.10;99.90
43627;DHT22;29217;52.586;13.442;2023-08-06T09:05:32;18.10;99.90
43627;DHT22;29217;52.586;13.442;2023-08-06T09:08:03;18.10;99.90
43627;DHT22;29217;52.586;13.442;2023-08-06T09:10:29;18.10;99.90
43627;DHT22;29217;52.586;13.442;2023-08-06T09:12:56;18.00;99.90
43627;DHT22;29217;52.586;13.442;2023-08-06T09:15:25;18.00;99.90
43627;DHT22;29217;52.586;13.442;2023-08-06T09:17:52;18.00;99.90
43627;DHT22;29217;52.586;13.442;2023-08-06T09:20:18;18.00;99.90
43627;DHT22;29217;52.586;13.442;2023-08-06T09:22:44;18.00;99.90
43627;DHT22;29217;52.586;13.442;2023-08-06T09:25:11;18.10;99.90
43627;DHT22;29217;52.586;13.442;2023-08-06T09:27:39;18.10;99.90
43627;DHT22;29217;52.586;13.442;2023-08-06T09:30:06;18.00;99.90
43627;DHT22;29217;52.586;13.442;2023-08-06T09:32:45;18.10;99.90
43627;DHT22;29217;52.586;13.442;2023-08-06T09:35:21;18.20;99.90
43627;DHT22;29217;52.586;13.442;2023-08-06T09:37:47;18.20;99.90
43627;DHT22;29217;52.586;13.442;2023-08-06T09:40:32;18.20;99.90
43627;DHT22;29217;52.586;13.442;2023-08-06T09:42:58;18.30;99.90
43627;DHT22;29217;52.586;13.442;2023-08-06T09:45:32;18.30;99.90
43627;DHT22;29217;52.586;13.442;2023-08-06T09:47:59;18.30;99.90
43627;DHT22;29217;52.586;13.442;2023-08-06T09:50:31;18.30;99.90
43627;DHT22;29217;52.586;13.442;2023-08-06T09:52:57;18.40;99.90
43627;DHT22;29217;52.586;13.442;2023-08-06T09:55:24;18.30;99.90
43627;DHT22;29217;52.586;13.442;2023-08-06T09:57:52;18.30;99.90
43627;DHT22;29217;52.586;13.442;2023-08-06T10:00:18;18.40;99.90
43627;DHT22;29217;52.586;13.442;2023-08-06T10:02:44;18.30;99.90
43627;DHT22;29217;52.586;13.442;2023-08-06T10:05:10;18.40;99.90
43627;DHT22;29217;52.586;13.442;2023-08-06T10:07:37;18.30;99.90
43627;DHT22;29217;52.586;13.442;2023-08-06T10:10:05;18.30;99.90
43627;DHT22;29217;52.586;13.442;2023-08-06T10:12:34;18.30;99.90
43627;DHT22;29217;52.586;13.442;2023-08-06T10:15:06;18.30;99.90
43627;DHT22;29217;52.586;13.442;2023-08-06T10:17:34;18.30;99.90
43627;DHT22;29217;52.586;13.442;2023-08-06T10:20:00;18.30;99.90
43627;DHT22;29217;52.586;13.442;2023-08-06T10:22:26;18.30;99.90
43627;DHT22;29217;52.586;13.442;2023-08-06T10:24:57;18.30;99.90
43627;DHT22;29217;52.586;13.442;2023-08-06T10:27:30;18.30;99.90
43627;DHT22;29217;52.586;13.442;2023-08-06T10:30:30;18.30;99.90
43627;DHT22;29217;52.586;13.442;2023-08-06T10:33:01;18.40;99.90
43627;DHT22;29217;52.586;13.442;2023-08-06T10:37:53;18.30;99.90
43627;DHT22;29217;52.586;13.442;2023-08-06T10:40:21;18.30;99.90
43627;DHT22;29217;52.586;13.442;2023-08-06T10:42:46;18.30;99.90
43627;DHT22;29217;52.586;13.442;2023-08-06T10:45:19;18.30;99.90
43627;DHT22;29217;52.586;13.442;2023-08-06T10:47:45;18.40;99.90
43627;DHT22;29217;52.586;13.442;2023-08-06T10:50:16;18.40;99.90
43627;DHT22;29217;52.586;13.442;2023-08-06T10:52:44;18.40;99.90
43627;DHT22;29217;52.586;13.442;2023-08-06T10:55:09;18.30;99.90
43627;DHT22;29217;52.586;13.442;2023-08-06T10:57:35;18.30;99.90
43627;DHT22;29217;52.586;13.442;2023-08-06T11:00:04;18.20;99.90
43627;DHT22;29217;52.586;13.442;2023-08-06T11:02:33;18.30;99.90
43627;DHT22;29217;52.586;13.442;2023-08-06T11:05:07;18.20;99.90
43627;DHT22;29217;52.586;13.442;2023-08-06T11:07:36;18.20;99.90
43627;DHT22;29217;52.586;13.442;2023-08-06T11:10:07;18.10;99.90
43627;DHT22;29217;52.586;13.442;2023-08-06T11:12:33;18.20;99.90
43627;DHT22;29217;52.586;13.442;2023-08-06T11:15:00;18.20;99.90
43627;DHT22;29217;52.586;13.442;2023-08-06T11:17:27;18.30;99.90
43627;DHT22;29217;52.586;13.442;2023-08-06T11:19:53;18.20;99.90
43627;DHT22;29217;52.586;13.442;2023-08-06T11:22:20;18.30;99.90
43627;DHT22;29217;52.586;13.442;2023-08-06T11:24:47;18.30;99.90
43627;DHT22;29217;52.586;13.442;2023-08-06T11:27:13;18.30;99.90
43627;DHT22;29217;52.586;13.442;2023-08-06T11:29:40;18.30;99.90
43627;DHT22;29217;52.586;13.442;2023-08-06T11:32:07;18.30;99.90
43627;DHT22;29217;52.586;13.442;2023-08-06T11:34:32;18.30;99.90
43627;DHT22;29217;52.586;13.442;2023-08-06T11:36:58;18.40;99.90
43627;DHT22;29217;52.586;13.442;2023-08-06T11:39:24;18.30;99.90
43627;DHT22;29217;52.586;13.442;2023-08-06T11:41:50;18.40;99.90
43627;DHT22;29217;52.586;13.442;2023-08-06T11:44:18;18.40;99.90
43627;DHT22;29217;52.586;13.442;2023-08-06T11:46:54;18.40;99.90
43627;DHT22;29217;52.586;13.442;2023-08-06T11:49:47;18.30;99.90
43627;DHT22;29217;52.586;13.442;2023-08-06T11:52:16;18.30;99.90
43627;DHT22;29217;52.586;13.442;2023-08-06T11:54:47;18.30;99.90
43627;DHT22;29217;52.586;13.442;2023-08-06T11:57:14;18.30;99.90
43627;DHT22;29217;52.586;13.442;2023-08-06T11:59:40;18.40;99.90
43627;DHT22;29217;52.586;13.442;2023-08-06T12:02:08;18.40;99.90
43627;DHT22;29217;52.586;13.442;2023-08-06T12:04:58;18.40;99.90
43627;DHT22;29217;52.586;13.442;2023-08-06T12:07:37;18.40;99.90
43627;DHT22;29217;52.586;13.442;2023-08-06T12:10:03;18.40;99.90
43627;DHT22;29217;52.586;13.442;2023-08-06T12:12:28;18.40;99.90
43627;DHT22;29217;52.586;13.442;2023-08-06T12:14:55;18.40;99.90
43627;DHT22;29217;52.586;13.442;2023-08-06T12:17:21;18.40;99.90
43627;DHT22;29217;52.586;13.442;2023-08-06T12:19:46;18.40;99.90
43627;DHT22;29217;52.586;13.442;2023-08-06T12:22:13;18.40;99.90
43627;DHT22;29217;52.586;13.442;2023-08-06T12:24:43;18.40;99.90
43627;DHT22;29217;52.586;13.442;2023-08-06T12:27:09;18.50;99.90
43627;DHT22;29217;52.586;13.442;2023-08-06T12:29:35;18.50;99.90
43627;DHT22;29217;52.586;13.442;2023-08-06T12:32:01;18.50;99.90
43627;DHT22;29217;52.586;13.442;2023-08-06T12:34:27;18.50;99.90
43627;DHT22;29217;52.586;13.442;2023-08-06T12:36:52;18.50;99.90
43627;DHT22;29217;52.586;13.442;2023-08-06T12:39:18;18.50;99.90
43627;DHT22;29217;52.586;13.442;2023-08-06T12:41:43;18.50;99.90
43627;DHT22;29217;52.586;13.442;2023-08-06T12:44:11;18.60;99.90
43627;DHT22;29217;52.586;13.442;2023-08-06T12:46:37;18.50;99.90
43627;DHT22;29217;52.586;13.442;2023-08-06T12:49:03;18.50;99.90
43627;DHT22;29217;52.586;13.442;2023-08-06T12:51:29;18.50;99.90
43627;DHT22;29217;52.586;13.442;2023-08-06T12:53:54;18.40;99.90
43627;DHT22;29217;52.586;13.442;2023-08-06T12:56:20;18.40;99.90
43627;DHT22;29217;52.586;13.442;2023-08-06T12:58:46;18.40;99.90
43627;DHT22;29217;52.586;13.442;2023-08-06T13:01:11;18.40;99.90
43627;DHT22;29217;52.586;13.442;2023-08-06T13:03:37;18.40;99.90
43627;DHT22;29217;52.586;13.442;2023-08-06T13:06:02;18.40;99.90
43627;DHT22;29217;52.586;13.442;2023-08-06T13:08:28;18.40;99.90
43627;DHT22;29217;52.586;13.442;2023-08-06T13:10:54;18.30;99.90
43627;DHT22;29217;52.586;13.442;2023-08-06T13:13:19;18.30;99.90
43627;DHT22;29217;52.586;13.442;2023-08-06T13:15:45;18.30;99.90
43627;DHT22;29217;52.586;13.442;2023-08-06T13:18:11;18.20;99.90
43627;DHT22;29217;52.586;13.442;2023-08-06T13:20:38;18.20;99.90
43627;DHT22;29217;52.586;13.442;2023-08-06T13:23:05;18.20;99.90
43627;DHT22;29217;52.586;13.442;2023-08-06T13:25:31;18.20;99.90
43627;DHT22;29217;52.586;13.442;2023-08-06T13:28:05;18.20;99.90
43627;DHT22;29217;52.586;13.442;2023-08-06T13:30:30;18.10;99.90
43627;DHT22;29217;52.586;13.442;2023-08-06T13:32:56;18.10;99.90
43627;DHT22;29217;52.586;13.442;2023-08-06T13:35:22;18.10;99.90
43627;DHT22;29217;52.586;13.442;2023-08-06T13:37:48;18.10;99.90
43627;DHT22;29217;52.586;13.442;2023-08-06T13:40:14;18.20;99.90
43627;DHT22;29217;52.586;13.442;2023-08-06T13:42:40;18.10;99.90
43627;DHT22;29217;52.586;13.442;2023-08-06T13:45:07;18.10;99.90
43627;DHT22;29217;52.586;13.442;2023-08-06T13:47:32;18.00;99.90
43627;DHT22;29217;52.586;13.442;2023-08-06T13:49:58;18.00;99.90
43627;DHT22;29217;52.586;13.442;2023-08-06T13:52:26;18.00;99.90
43627;DHT22;29217;52.586;13.442;2023-08-06T13:54:52;18.00;99.90
43627;DHT22;29217;52.586;13.442;2023-08-06T13:57:17;18.00;99.90
43627;DHT22;29217;52.586;13.442;2023-08-06T13:59:43;17.90;99.90
43627;DHT22;29217;52.586;13.442;2023-08-06T14:02:09;18.00;99.90
43627;DHT22;29217;52.586;13.442;2023-08-06T14:04:35;18.00;99.90
43627;DHT22;29217;52.586;13.442;2023-08-06T14:07:03;18.10;99.90
43627;DHT22;29217;52.586;13.442;2023-08-06T14:09:29;18.10;99.90
43627;DHT22;29217;52.586;13.442;2023-08-06T14:11:54;18.00;99.90
43627;DHT22;29217;52.586;13.442;2023-08-06T14:14:20;18.00;99.90
43627;DHT22;29217;52.586;13.442;2023-08-06T14:16:54;18.00;99.90
43627;DHT22;29217;52.586;13.442;2023-08-06T14:19:20;17.90;99.90
43627;DHT22;29217;52.586;13.442;2023-08-06T14:21:46;17.90;99.90
43627;DHT22;29217;52.586;13.442;2023-08-06T14:24:11;17.90;99.90
43627;DHT22;29217;52.586;13.442;2023-08-06T14:26:37;17.90;99.90
43627;DHT22;29217;52.586;13.442;2023-08-06T14:29:03;17.80;99.90
43627;DHT22;29217;52.586;13.442;2023-08-06T14:31:29;17.80;99.90
43627;DHT22;29217;52.586;13.442;2023-08-06T14:33:54;17.80;99.90
43627;DHT22;29217;52.586;13.442;2023-08-06T14:36:20;17.70;99.90
43627;DHT22;29217;52.586;13.442;2023-08-06T14:38:46;17.70;99.90
43627;DHT22;29217;52.586;13.442;2023-08-06T14:41:11;17.60;99.90
43627;DHT22;29217;52.586;13.442;2023-08-06T14:43:37;17.60;99.90
43627;DHT22;29217;52.586;13.442;2023-08-06T14:46:03;17.60;99.90
43627;DHT22;29217;52.586;13.442;2023-08-06T14:48:29;17.70;99.90
43627;DHT22;29217;52.586;13.442;2023-08-06T14:50:55;17.70;99.90
43627;DHT22;29217;52.586;13.442;2023-08-06T14:53:21;17.70;99.90
43627;DHT22;29217;52.586;13.442;2023-08-06T14:55:46;17.70;99.90
43627;DHT22;29217;52.586;13.442;2023-08-06T14:58:12;17.70;99.90
43627;DHT22;29217;52.586;13.442;2023-08-06T15:00:38;17.70;99.90
43627;DHT22;29217;52.586;13.442;2023-08-06T15:03:03;17.70;99.90
43627;DHT22;29217;52.586;13.442;2023-08-06T15:05:29;17.70;99.90
43627;DHT22;29217;52.586;13.442;2023-08-06T15:07:54;17.70;99.90
43627;DHT22;29217;52.586;13.442;2023-08-06T15:10:20;17.80;99.90
43627;DHT22;29217;52.586;13.442;2023-08-06T15:12:46;17.80;99.90
43627;DHT22;29217;52.586;13.442;2023-08-06T15:15:12;17.80;99.90
43627;DHT22;29217;52.586;13.442;2023-08-06T15:17:37;17.80;99.90